National Weather Service Raw Text Product

Displaying AFOS PIL: TAFOTM Received: 2018-01-03 17:26 UTC


748 
FTUS43 KDMX 031726 AAB
TAFOTM
TAF AMD
KOTM 031726Z 0317/0412 32015G23KT P6SM SKC
     FM040100 32009KT P6SM FEW250
      AMD NOT SKED=